Time;durP1;ratioP1;P1;durP2;ratioP2;P2;SDS_P1;SDS_P2;PMS_P1;PMS_P2;Temp;Humidity;BMP_temperature;BMP_pressure;BME280_temperature;BME280_humidity;BME280_pressure;Samples;Min_cycle;Max_cycle;Signal;HPM_P1;HPM_P2
2022/06/29 00:02:09;;;;;;;;;;;18.30;99.90;;;;;;4955735;28;19929;-71
2022/06/29 00:04:41;;;;;;;;;;;18.30;99.90;;;;;;4963420;28;20391;-71
2022/06/29 00:07:08;;;;;;;;;;;18.40;99.90;;;;;;4963160;28;19926;-71
2022/06/29 00:09:39;;;;;;;;;;;18.40;99.90;;;;;;4970458;28;19922;-71
2022/06/29 00:12:11;;;;;;;;;;;18.50;99.90;;;;;;4966320;28;19922;-72
2022/06/29 00:14:42;;;;;;;;;;;18.50;99.90;;;;;;4968576;28;19956;-72
2022/06/29 00:17:14;;;;;;;;;;;18.50;99.90;;;;;;4969989;28;19922;-72
2022/06/29 00:19:46;;;;;;;;;;;18.50;99.90;;;;;;4968549;28;19928;-72
2022/06/29 00:22:17;;;;;;;;;;;18.50;99.90;;;;;;4956591;28;20389;-71
2022/06/29 00:24:49;;;;;;;;;;;18.50;99.90;;;;;;4967049;28;19925;-71
2022/06/29 00:27:21;;;;;;;;;;;18.50;99.90;;;;;;4969623;28;19929;-72
2022/06/29 00:29:48;;;;;;;;;;;18.50;99.90;;;;;;4965547;28;19936;-71
2022/06/29 00:32:19;;;;;;;;;;;18.50;99.90;;;;;;4969758;28;20332;-71
2022/06/29 00:34:51;;;;;;;;;;;18.50;99.90;;;;;;4963511;28;20302;-72
2022/06/29 00:37:23;;;;;;;;;;;18.40;99.90;;;;;;4967923;28;20030;-71
2022/06/29 00:39:55;;;;;;;;;;;18.40;99.90;;;;;;4958968;28;19927;-71
2022/06/29 00:42:26;;;;;;;;;;;18.30;99.90;;;;;;4958233;28;19922;-71
2022/06/29 00:44:58;;;;;;;;;;;18.20;99.90;;;;;;4962760;28;19928;-71
2022/06/29 00:47:30;;;;;;;;;;;18.10;99.90;;;;;;4943822;28;19922;-72
2022/06/29 00:50:02;;;;;;;;;;;18.10;99.90;;;;;;4955867;28;20566;-71
2022/06/29 00:52:35;;;;;;;;;;;18.00;99.90;;;;;;4957788;28;19937;-71
2022/06/29 00:55:10;;;;;;;;;;;18.00;99.90;;;;;;4969972;28;19922;-72
2022/06/29 00:57:44;;;;;;;;;;;17.90;99.90;;;;;;4973398;28;20391;-71
2022/06/29 01:00:16;;;;;;;;;;;17.90;99.90;;;;;;4959993;28;19922;-72
2022/06/29 01:02:48;;;;;;;;;;;17.90;99.90;;;;;;4967504;28;19926;-72
2022/06/29 01:05:19;;;;;;;;;;;17.90;99.90;;;;;;4965184;28;19929;-72
2022/06/29 01:07:46;;;;;;;;;;;17.90;99.90;;;;;;4964680;28;19922;-72
2022/06/29 01:10:17;;;;;;;;;;;17.80;99.90;;;;;;4971114;28;19937;-72
2022/06/29 01:12:50;;;;;;;;;;;17.80;99.90;;;;;;4962093;28;20429;-72
2022/06/29 01:15:22;;;;;;;;;;;17.70;99.90;;;;;;4967762;28;19928;-72
2022/06/29 01:17:54;;;;;;;;;;;17.70;99.90;;;;;;4967969;28;19925;-72
2022/06/29 01:20:26;;;;;;;;;;;17.70;99.90;;;;;;4962268;28;19922;-72
2022/06/29 01:22:58;;;;;;;;;;;17.60;99.90;;;;;;4959141;28;19968;-72
2022/06/29 01:25:29;;;;;;;;;;;17.50;99.90;;;;;;4961990;28;20397;-72
2022/06/29 01:28:01;;;;;;;;;;;17.50;99.90;;;;;;4976978;28;20296;-72
2022/06/29 01:30:33;;;;;;;;;;;17.50;99.90;;;;;;4969588;28;19926;-72
2022/06/29 01:33:04;;;;;;;;;;;17.50;99.90;;;;;;4967738;28;20715;-72
2022/06/29 01:35:36;;;;;;;;;;;17.50;99.90;;;;;;4963318;28;19925;-72
2022/06/29 01:38:07;;;;;;;;;;;17.40;99.90;;;;;;4963500;28;19985;-72
2022/06/29 01:40:39;;;;;;;;;;;17.40;99.90;;;;;;4954952;28;19926;-72
2022/06/29 01:43:11;;;;;;;;;;;17.40;99.90;;;;;;4956113;28;19969;-72
2022/06/29 01:45:43;;;;;;;;;;;17.30;99.90;;;;;;4969159;28;19922;-72
2022/06/29 01:48:15;;;;;;;;;;;17.20;99.90;;;;;;4970610;28;19922;-72
2022/06/29 01:50:46;;;;;;;;;;;17.20;99.90;;;;;;4969462;28;19930;-72
2022/06/29 01:53:18;;;;;;;;;;;17.20;99.90;;;;;;4979167;28;20290;-72
2022/06/29 01:55:50;;;;;;;;;;;17.20;99.90;;;;;;4967511;28;20014;-72
2022/06/29 01:58:21;;;;;;;;;;;17.20;99.90;;;;;;4966445;28;19935;-72
2022/06/29 02:00:53;;;;;;;;;;;17.20;99.90;;;;;;4960687;28;20278;-72
2022/06/29 02:03:25;;;;;;;;;;;17.20;99.90;;;;;;4962978;28;19930;-72
2022/06/29 02:05:56;;;;;;;;;;;17.20;99.90;;;;;;4963080;28;19922;-72
2022/06/29 02:08:28;;;;;;;;;;;17.20;99.90;;;;;;4968550;28;19930;-72
2022/06/29 02:11:00;;;;;;;;;;;17.30;99.90;;;;;;4963497;28;19926;-73
2022/06/29 02:13:32;;;;;;;;;;;17.30;99.90;;;;;;4964440;28;19932;-72
2022/06/29 02:16:03;;;;;;;;;;;17.30;99.90;;;;;;4969148;28;20429;-72
2022/06/29 02:18:35;;;;;;;;;;;17.30;99.90;;;;;;4970837;28;19929;-72
2022/06/29 02:21:07;;;;;;;;;;;17.30;99.90;;;;;;4958390;28;19923;-72
2022/06/29 02:23:38;;;;;;;;;;;17.40;99.90;;;;;;4959891;28;19929;-72
2022/06/29 02:26:10;;;;;;;;;;;17.40;99.90;;;;;;4965801;28;19922;-72
2022/06/29 02:28:42;;;;;;;;;;;17.40;99.90;;;;;;4963939;28;19929;-72
2022/06/29 02:36:54;;;;;;;;;;;17.50;99.90;;;;;;4962275;28;20421;-72
2022/06/29 02:39:26;;;;;;;;;;;17.60;99.90;;;;;;4958914;28;20018;-72
2022/06/29 02:41:57;;;;;;;;;;;17.60;99.90;;;;;;4967128;28;20017;-73
2022/06/29 02:44:24;;;;;;;;;;;17.60;99.90;;;;;;4951967;28;19926;-73
2022/06/29 02:46:50;;;;;;;;;;;17.60;99.90;;;;;;4969879;28;19928;-73
2022/06/29 02:49:22;;;;;;;;;;;17.70;99.90;;;;;;4963376;28;19926;-73
2022/06/29 02:51:54;;;;;;;;;;;17.70;99.90;;;;;;4958439;28;19926;-73
2022/06/29 02:54:25;;;;;;;;;;;17.70;99.90;;;;;;4963268;28;20251;-72
2022/06/29 02:56:57;;;;;;;;;;;17.70;99.90;;;;;;4962723;28;19926;-72
2022/06/29 02:59:29;;;;;;;;;;;17.70;99.90;;;;;;4963388;28;19931;-73
2022/06/29 03:02:00;;;;;;;;;;;17.60;99.90;;;;;;4962211;28;19922;-73
2022/06/29 03:04:34;;;;;;;;;;;17.60;99.90;;;;;;4963920;28;19922;-72
2022/06/29 03:07:05;;;;;;;;;;;17.50;99.90;;;;;;4966720;28;19929;-73
2022/06/29 03:09:37;;;;;;;;;;;17.50;99.90;;;;;;4960204;28;19922;-73
2022/06/29 03:12:09;;;;;;;;;;;17.40;99.90;;;;;;4970144;28;19930;-73
2022/06/29 03:14:40;;;;;;;;;;;17.40;99.90;;;;;;4959311;28;19926;-73
2022/06/29 03:17:12;;;;;;;;;;;17.30;99.90;;;;;;4970851;28;20493;-73
2022/06/29 03:19:44;;;;;;;;;;;17.30;99.90;;;;;;4970480;28;19921;-73
2022/06/29 03:22:15;;;;;;;;;;;17.30;99.90;;;;;;4971387;28;20278;-72
2022/06/29 03:24:42;;;;;;;;;;;17.30;99.90;;;;;;4955039;28;19933;-73
2022/06/29 03:27:13;;;;;;;;;;;17.30;99.90;;;;;;4966615;28;19925;-73
2022/06/29 03:29:45;;;;;;;;;;;17.40;99.90;;;;;;4966411;28;19926;-74
2022/06/29 03:32:17;;;;;;;;;;;17.40;99.90;;;;;;4962148;28;19926;-73
2022/06/29 03:34:49;;;;;;;;;;;17.50;99.90;;;;;;4959266;28;19926;-73
2022/06/29 03:37:20;;;;;;;;;;;17.50;99.90;;;;;;4966602;28;19922;-73
2022/06/29 03:39:52;;;;;;;;;;;17.60;99.90;;;;;;4960795;28;19930;-72
2022/06/29 03:42:23;;;;;;;;;;;17.70;99.90;;;;;;4964741;28;19926;-73
2022/06/29 03:44:55;;;;;;;;;;;17.70;99.90;;;;;;4961843;28;19925;-73
2022/06/29 03:47:27;;;;;;;;;;;17.70;99.90;;;;;;4969438;28;20283;-73
2022/06/29 03:49:59;;;;;;;;;;;17.80;99.90;;;;;;4965657;28;20281;-73
2022/06/29 03:52:30;;;;;;;;;;;17.80;99.90;;;;;;4973841;28;19922;-73
2022/06/29 03:55:02;;;;;;;;;;;17.90;99.90;;;;;;4966064;28;19929;-73
2022/06/29 03:57:29;;;;;;;;;;;17.90;99.90;;;;;;4970397;28;19934;-73
2022/06/29 04:00:01;;;;;;;;;;;18.00;99.90;;;;;;4967573;28;19926;-73
2022/06/29 04:02:39;;;;;;;;;;;17.90;99.90;;;;;;4980162;28;19930;-73
2022/06/29 04:05:10;;;;;;;;;;;17.90;99.90;;;;;;4957222;28;19929;-74
2022/06/29 04:07:37;;;;;;;;;;;17.90;99.90;;;;;;4968150;28;20042;-73
2022/06/29 04:10:09;;;;;;;;;;;18.00;99.90;;;;;;4969848;28;20455;-73
2022/06/29 04:12:40;;;;;;;;;;;18.00;99.90;;;;;;4966684;28;20044;-73
2022/06/29 04:15:12;;;;;;;;;;;17.90;99.90;;;;;;4970598;28;20405;-74
2022/06/29 04:17:44;;;;;;;;;;;17.90;99.90;;;;;;4972509;28;19922;-73
2022/06/29 04:23:06;;;;;;;;;;;18.00;99.90;;;;;;4973995;28;19932;-73
2022/06/29 04:25:37;;;;;;;;;;;18.00;99.90;;;;;;4964831;28;19961;-73
2022/06/29 04:28:09;;;;;;;;;;;18.10;99.90;;;;;;4960650;28;19930;-73
2022/06/29 04:30:40;;;;;;;;;;;18.10;99.90;;;;;;4971331;28;20004;-73
2022/06/29 04:33:12;;;;;;;;;;;18.10;99.90;;;;;;4961301;28;19929;-73
2022/06/29 04:35:44;;;;;;;;;;;18.20;99.90;;;;;;4968527;28;19945;-73
2022/06/29 04:38:15;;;;;;;;;;;18.20;99.90;;;;;;4969361;28;19930;-73
2022/06/29 04:40:47;;;;;;;;;;;18.20;99.90;;;;;;4970580;28;19960;-73
2022/06/29 04:43:19;;;;;;;;;;;18.20;99.90;;;;;;4965264;28;19930;-74
2022/06/29 04:48:41;;;;;;;;;;;18.20;99.90;;;;;;4967739;28;20301;-73
2022/06/29 04:51:13;;;;;;;;;;;18.20;99.90;;;;;;4983908;28;19954;-73
2022/06/29 04:53:39;;;;;;;;;;;18.30;99.90;;;;;;4971238;28;19933;-73
2022/06/29 04:56:12;;;;;;;;;;;18.30;99.90;;;;;;4971614;28;19922;-74
2022/06/29 04:58:43;;;;;;;;;;;18.20;99.90;;;;;;4965901;28;19945;-73
2022/06/29 05:01:15;;;;;;;;;;;18.20;99.90;;;;;;4977439;28;19934;-73
2022/06/29 05:03:47;;;;;;;;;;;18.20;99.90;;;;;;4962390;28;19922;-73
2022/06/29 05:06:20;;;;;;;;;;;18.20;99.90;;;;;;4966041;28;19923;-73
2022/06/29 05:08:48;;;;;;;;;;;18.30;99.90;;;;;;4976904;28;19941;-74
2022/06/29 05:11:22;;;;;;;;;;;18.30;99.90;;;;;;4966721;28;19930;-73
2022/06/29 05:13:54;;;;;;;;;;;18.30;99.90;;;;;;4969512;28;19993;-73
2022/06/29 05:16:21;;;;;;;;;;;18.40;99.90;;;;;;4968589;28;19922;-73
2022/06/29 05:18:48;;;;;;;;;;;18.40;99.90;;;;;;4972097;28;19937;-73
2022/06/29 05:21:15;;;;;;;;;;;18.40;99.90;;;;;;4968527;28;19957;-73
2022/06/29 05:23:42;;;;;;;;;;;18.50;99.90;;;;;;4966547;28;19922;-73
2022/06/29 05:26:14;;;;;;;;;;;18.40;99.90;;;;;;4973059;28;19937;-73
2022/06/29 05:28:47;;;;;;;;;;;18.40;99.90;;;;;;4970292;28;19934;-73
2022/06/29 05:31:19;;;;;;;;;;;18.40;99.90;;;;;;4966999;28;19929;-73
2022/06/29 05:33:51;;;;;;;;;;;18.40;99.90;;;;;;4961588;28;19969;-73
2022/06/29 05:36:23;;;;;;;;;;;18.40;99.90;;;;;;4968050;28;19926;-73
2022/06/29 05:38:54;;;;;;;;;;;18.30;99.90;;;;;;4966821;28;19922;-72
2022/06/29 05:41:26;;;;;;;;;;;18.30;99.90;;;;;;4963470;28;19927;-73
2022/06/29 05:43:57;;;;;;;;;;;18.30;99.90;;;;;;4954429;28;19922;-73
2022/06/29 05:46:29;;;;;;;;;;;18.30;99.90;;;;;;4968426;28;19926;-73
2022/06/29 05:49:00;;;;;;;;;;;18.30;99.90;;;;;;4963101;28;19929;-73
2022/06/29 05:51:32;;;;;;;;;;;18.40;99.90;;;;;;4964702;28;20316;-73
2022/06/29 05:54:04;;;;;;;;;;;18.40;99.90;;;;;;4953453;28;19927;-73
2022/06/29 05:56:35;;;;;;;;;;;18.40;99.90;;;;;;4976983;28;19929;-73
2022/06/29 05:59:07;;;;;;;;;;;18.30;99.90;;;;;;4963720;28;20029;-73
2022/06/29 06:01:37;;;;;;;;;;;18.40;99.90;;;;;;4969486;28;20000;-73
2022/06/29 06:04:08;;;;;;;;;;;18.30;99.90;;;;;;4954201;28;19945;-73
2022/06/29 06:06:40;;;;;;;;;;;18.40;99.90;;;;;;4970813;28;19969;-73
2022/06/29 06:09:12;;;;;;;;;;;18.40;99.90;;;;;;4974256;28;19922;-72
2022/06/29 06:11:43;;;;;;;;;;;18.40;99.90;;;;;;4956315;28;19933;-73
2022/06/29 06:14:15;;;;;;;;;;;18.40;99.90;;;;;;4956706;28;19929;-73
2022/06/29 06:16:46;;;;;;;;;;;18.40;99.90;;;;;;4964540;28;20397;-72
2022/06/29 06:19:18;;;;;;;;;;;18.40;99.90;;;;;;4962263;28;19930;-73
2022/06/29 06:21:50;;;;;;;;;;;18.40;99.90;;;;;;4967479;28;20029;-73
2022/06/29 06:24:21;;;;;;;;;;;18.50;99.90;;;;;;4962403;28;19923;-73
2022/06/29 06:26:54;;;;;;;;;;;18.50;99.90;;;;;;4969892;28;19922;-73
2022/06/29 06:29:26;;;;;;;;;;;18.60;99.90;;;;;;4980150;28;20602;-73
2022/06/29 06:31:57;;;;;;;;;;;18.60;99.90;;;;;;4962840;28;19926;-73
2022/06/29 06:34:29;;;;;;;;;;;18.60;99.90;;;;;;4961743;28;19926;-72
2022/06/29 06:37:01;;;;;;;;;;;18.70;99.90;;;;;;4967024;28;19936;-73
2022/06/29 06:39:33;;;;;;;;;;;18.80;99.90;;;;;;4966225;28;19922;-73
2022/06/29 06:42:04;;;;;;;;;;;18.80;99.90;;;;;;4967777;28;19929;-73
2022/06/29 06:44:41;;;;;;;;;;;18.90;99.90;;;;;;4983804;28;19929;-73
2022/06/29 06:47:12;;;;;;;;;;;18.90;99.90;;;;;;4963339;28;19923;-73
2022/06/29 06:49:44;;;;;;;;;;;18.90;99.90;;;;;;4963844;28;19929;-73
2022/06/29 06:52:17;;;;;;;;;;;18.90;99.90;;;;;;4955519;28;19929;-73
2022/06/29 06:54:48;;;;;;;;;;;18.90;99.90;;;;;;4958452;28;19921;-73
2022/06/29 06:57:20;;;;;;;;;;;18.80;99.90;;;;;;4969331;28;19926;-73
2022/06/29 06:59:53;;;;;;;;;;;18.80;99.90;;;;;;4976844;28;19965;-73
2022/06/29 07:02:24;;;;;;;;;;;18.70;99.90;;;;;;4955699;28;20300;-73
2022/06/29 07:04:56;;;;;;;;;;;18.60;99.90;;;;;;4962766;28;19937;-73
2022/06/29 07:07:28;;;;;;;;;;;18.60;99.90;;;;;;4959970;28;19961;-72
2022/06/29 07:09:59;;;;;;;;;;;18.60;99.90;;;;;;4960243;28;19933;-73
2022/06/29 07:12:31;;;;;;;;;;;18.60;99.90;;;;;;4953611;29;19934;-73
2022/06/29 07:15:03;;;;;;;;;;;18.70;99.90;;;;;;4965650;28;19932;-73
2022/06/29 07:17:35;;;;;;;;;;;18.70;99.90;;;;;;4964510;28;19933;-73
2022/06/29 07:20:08;;;;;;;;;;;18.80;99.90;;;;;;4963971;28;19945;-73
2022/06/29 07:22:39;;;;;;;;;;;18.80;99.90;;;;;;4963283;28;19929;-73
2022/06/29 07:25:11;;;;;;;;;;;18.80;99.90;;;;;;4964098;28;19945;-73
2022/06/29 07:27:43;;;;;;;;;;;18.80;99.90;;;;;;4969609;28;19926;-73
2022/06/29 07:30:15;;;;;;;;;;;18.80;99.90;;;;;;4965226;28;19922;-73
2022/06/29 07:32:46;;;;;;;;;;;18.80;99.90;;;;;;4968339;28;19934;-73
2022/06/29 07:35:13;;;;;;;;;;;18.90;99.90;;;;;;4961099;28;20298;-72
2022/06/29 07:37:45;;;;;;;;;;;18.90;99.90;;;;;;4982626;28;19929;-73
2022/06/29 07:40:16;;;;;;;;;;;18.90;99.90;;;;;;4956727;28;20322;-73
2022/06/29 07:42:48;;;;;;;;;;;18.90;99.90;;;;;;4955506;28;19922;-72
2022/06/29 07:45:19;;;;;;;;;;;18.80;99.90;;;;;;4967523;28;19929;-73
2022/06/29 07:47:52;;;;;;;;;;;18.90;99.90;;;;;;4962260;28;19937;-73
2022/06/29 07:50:24;;;;;;;;;;;18.90;99.90;;;;;;4968275;28;19926;-72
2022/06/29 07:52:55;;;;;;;;;;;19.00;99.90;;;;;;4964667;28;19923;-73
2022/06/29 07:55:27;;;;;;;;;;;19.00;99.90;;;;;;4967318;28;19994;-72
2022/06/29 07:57:59;;;;;;;;;;;19.00;99.90;;;;;;4964527;28;19926;-73
2022/06/29 08:00:30;;;;;;;;;;;19.00;99.90;;;;;;4966059;28;19922;-73
2022/06/29 08:03:02;;;;;;;;;;;18.90;99.90;;;;;;4964543;28;20903;-73
2022/06/29 08:05:35;;;;;;;;;;;18.90;99.90;;;;;;4958386;28;20090;-73
2022/06/29 08:08:07;;;;;;;;;;;18.90;99.90;;;;;;4960683;28;19922;-73
2022/06/29 08:10:34;;;;;;;;;;;19.00;99.90;;;;;;4960458;28;20412;-72
2022/06/29 08:13:05;;;;;;;;;;;19.00;99.90;;;;;;4960635;28;20371;-73
2022/06/29 08:15:37;;;;;;;;;;;19.10;99.90;;;;;;4961402;28;20383;-73
2022/06/29 08:18:03;;;;;;;;;;;19.00;99.90;;;;;;4967141;28;19932;-73
2022/06/29 08:20:35;;;;;;;;;;;19.10;99.90;;;;;;4959759;28;19928;-73
2022/06/29 08:23:07;;;;;;;;;;;19.10;99.90;;;;;;4960134;28;19928;-73
2022/06/29 08:25:39;;;;;;;;;;;19.10;99.90;;;;;;4963224;28;19926;-72
2022/06/29 08:28:10;;;;;;;;;;;19.10;99.90;;;;;;4964550;28;20290;-72
2022/06/29 08:30:42;;;;;;;;;;;19.10;99.90;;;;;;4968465;28;19926;-72
2022/06/29 08:33:13;;;;;;;;;;;19.20;99.90;;;;;;4972870;28;20529;-72
2022/06/29 08:35:45;;;;;;;;;;;19.20;99.90;;;;;;4967852;28;20366;-72
2022/06/29 08:38:17;;;;;;;;;;;19.30;99.90;;;;;;4972489;28;19949;-72
2022/06/29 08:40:48;;;;;;;;;;;19.40;99.90;;;;;;4964997;28;19933;-72
2022/06/29 08:43:21;;;;;;;;;;;19.40;99.90;;;;;;4969491;28;20465;-73
2022/06/29 08:45:48;;;;;;;;;;;19.40;99.90;;;;;;4969915;28;19933;-72
2022/06/29 08:48:19;;;;;;;;;;;19.40;99.90;;;;;;4972559;28;19922;-72
2022/06/29 08:50:52;;;;;;;;;;;19.50;99.90;;;;;;4980204;28;19926;-72
2022/06/29 08:53:24;;;;;;;;;;;19.50;99.90;;;;;;4967344;28;20020;-73
2022/06/29 08:55:57;;;;;;;;;;;19.60;99.90;;;;;;4970968;28;20013;-72
2022/06/29 08:58:29;;;;;;;;;;;19.70;99.90;;;;;;4966648;28;19929;-72
2022/06/29 09:01:01;;;;;;;;;;;19.70;99.90;;;;;;4968624;28;20016;-72
2022/06/29 09:03:32;;;;;;;;;;;19.70;99.90;;;;;;4966468;28;19922;-73
2022/06/29 09:06:06;;;;;;;;;;;19.80;99.90;;;;;;4967658;28;19954;-73
2022/06/29 09:08:37;;;;;;;;;;;19.90;99.90;;;;;;4972724;28;20470;-73
2022/06/29 09:11:24;;;;;;;;;;;20.00;99.90;;;;;;4964548;28;20033;-73
2022/06/29 09:14:15;;;;;;;;;;;20.00;99.90;;;;;;4981739;28;19922;-73
2022/06/29 09:17:03;;;;;;;;;;;20.10;99.90;;;;;;4971756;28;19957;-73
2022/06/29 09:19:34;;;;;;;;;;;20.20;99.90;;;;;;4970264;28;19926;-73
2022/06/29 09:22:06;;;;;;;;;;;20.20;99.90;;;;;;4972682;28;19933;-73
2022/06/29 09:24:38;;;;;;;;;;;20.30;99.90;;;;;;4971474;28;19923;-73
2022/06/29 09:27:11;;;;;;;;;;;20.30;99.90;;;;;;4968974;28;19929;-73
2022/06/29 09:29:43;;;;;;;;;;;20.40;99.90;;;;;;4960836;28;19923;-73
2022/06/29 09:32:16;;;;;;;;;;;20.40;99.90;;;;;;4973225;28;19932;-73
2022/06/29 09:34:50;;;;;;;;;;;20.60;99.90;;;;;;4967029;28;20020;-73
2022/06/29 09:37:17;;;;;;;;;;;20.70;99.90;;;;;;4963381;28;20375;-73
2022/06/29 09:39:52;;;;;;;;;;;20.90;99.90;;;;;;4956798;28;19926;-73
2022/06/29 09:42:26;;;;;;;;;;;21.00;99.90;;;;;;4967904;28;20009;-73
2022/06/29 09:44:57;;;;;;;;;;;21.10;99.90;;;;;;4965030;28;20374;-73
2022/06/29 09:47:24;;;;;;;;;;;21.10;99.90;;;;;;4971348;28;19930;-73
2022/06/29 09:49:59;;;;;;;;;;;21.20;99.90;;;;;;4960354;28;19926;-73
2022/06/29 09:52:32;;;;;;;;;;;21.30;99.90;;;;;;4971144;28;19922;-73
2022/06/29 09:55:06;;;;;;;;;;;21.50;99.90;;;;;;4965930;28;19922;-73
2022/06/29 09:57:38;;;;;;;;;;;21.60;99.90;;;;;;4967662;28;20305;-70
2022/06/29 10:03:01;;;;;;;;;;;21.60;99.90;;;;;;4964475;28;19930;-73
2022/06/29 10:08:18;;;;;;;;;;;21.40;99.90;;;;;;4965947;28;19930;-73
2022/06/29 10:10:58;;;;;;;;;;;21.50;99.90;;;;;;4975014;28;19926;-73
2022/06/29 10:13:42;;;;;;;;;;;21.70;99.90;;;;;;4959631;28;19922;-73
2022/06/29 10:16:32;;;;;;;;;;;21.80;99.90;;;;;;4967467;28;19948;-73
2022/06/29 10:19:04;;;;;;;;;;;21.90;99.90;;;;;;4965317;28;19922;-71
2022/06/29 10:21:35;;;;;;;;;;;22.00;99.90;;;;;;4970157;28;20322;-70
2022/06/29 10:24:07;;;;;;;;;;;21.90;99.90;;;;;;4968435;28;20379;-71
2022/06/29 10:26:39;;;;;;;;;;;22.10;99.90;;;;;;4968220;28;19933;-70
2022/06/29 10:29:23;;;;;;;;;;;22.20;99.90;;;;;;4956606;28;19933;-70
2022/06/29 10:31:56;;;;;;;;;;;22.30;99.90;;;;;;4954344;28;19957;-70
2022/06/29 10:34:28;;;;;;;;;;;22.20;99.90;;;;;;4956926;28;19930;-71
2022/06/29 10:36:59;;;;;;;;;;;22.20;99.90;;;;;;4974170;28;19922;-70
2022/06/29 10:39:43;;;;;;;;;;;22.20;99.90;;;;;;4966037;28;19929;-70
2022/06/29 10:45:18;;;;;;;;;;;22.20;99.90;;;;;;4961804;28;19937;-70
2022/06/29 10:47:53;;;;;;;;;;;22.30;99.90;;;;;;4970226;28;19926;-71
2022/06/29 10:50:26;;;;;;;;;;;22.30;99.90;;;;;;4967183;28;20303;-70
2022/06/29 10:53:00;;;;;;;;;;;22.40;99.90;;;;;;4960886;28;20314;-71
2022/06/29 10:55:33;;;;;;;;;;;22.50;99.90;;;;;;4964539;28;20050;-71
2022/06/29 10:58:05;;;;;;;;;;;22.50;99.90;;;;;;4970754;28;19922;-70
2022/06/29 11:00:38;;;;;;;;;;;22.50;99.90;;;;;;4967820;28;19922;-70
2022/06/29 11:03:12;;;;;;;;;;;22.50;99.90;;;;;;4958455;28;19922;-71
2022/06/29 11:17:39;;;;;;;;;;;22.90;99.90;;;;;;4963886;28;19923;-70
2022/06/29 11:19:56;;;;;;;;;;;23.00;99.90;;;;;;4954460;28;20383;-70
2022/06/29 11:22:23;;;;;;;;;;;23.10;99.90;;;;;;4961280;28;19928;-70
2022/06/29 11:24:54;;;;;;;;;;;23.20;99.90;;;;;;4958918;28;19964;-70
2022/06/29 11:27:36;;;;;;;;;;;23.20;99.90;;;;;;4956458;28;19926;-70
2022/06/29 11:30:04;;;;;;;;;;;23.40;99.90;;;;;;4955707;28;19923;-70
2022/06/29 11:32:37;;;;;;;;;;;23.60;99.90;;;;;;4966149;28;19922;-70
2022/06/29 11:35:09;;;;;;;;;;;23.80;99.90;;;;;;4959803;28;19922;-70
2022/06/29 11:37:36;;;;;;;;;;;23.90;99.90;;;;;;4967880;28;19922;-71
2022/06/29 11:40:08;;;;;;;;;;;24.10;99.90;;;;;;4959802;28;19926;-71
2022/06/29 11:45:39;;;;;;;;;;;24.00;99.90;;;;;;4927670;28;1081065;-69
2022/06/29 11:48:26;;;;;;;;;;;24.20;99.90;;;;;;4973810;28;20040;-69
2022/06/29 11:50:59;;;;;;;;;;;24.30;99.90;;;;;;4967323;28;19994;-70
2022/06/29 11:53:53;;;;;;;;;;;24.20;99.90;;;;;;4953148;29;19922;-69
2022/06/29 11:56:28;;;;;;;;;;;24.20;99.90;;;;;;4965223;28;19964;-69
2022/06/29 11:59:04;;;;;;;;;;;24.20;99.90;;;;;;4984366;28;19922;-69
2022/06/29 12:01:35;;;;;;;;;;;24.40;99.90;;;;;;4991177;28;19932;-70
2022/06/29 12:04:09;;;;;;;;;;;24.70;99.90;;;;;;4974682;28;19922;-70
2022/06/29 12:06:36;;;;;;;;;;;25.00;99.90;;;;;;4964776;28;19926;-69
2022/06/29 12:09:08;;;;;;;;;;;25.20;99.90;;;;;;4977119;28;19926;-69
2022/06/29 12:11:40;;;;;;;;;;;25.50;99.90;;;;;;4975254;28;19922;-70
2022/06/29 12:14:06;;;;;;;;;;;25.60;99.90;;;;;;4964617;28;20314;-70
2022/06/29 12:16:38;;;;;;;;;;;25.30;99.90;;;;;;4981804;28;20442;-70
2022/06/29 12:19:05;;;;;;;;;;;25.10;99.90;;;;;;4964325;28;19922;-70
2022/06/29 12:21:32;;;;;;;;;;;25.20;99.90;;;;;;4972000;28;19932;-69
2022/06/29 12:24:03;;;;;;;;;;;25.60;99.90;;;;;;4963195;28;19929;-70
2022/06/29 12:26:35;;;;;;;;;;;26.00;99.90;;;;;;4972311;28;19945;-70
2022/06/29 12:29:07;;;;;;;;;;;26.40;99.90;;;;;;4979103;28;19928;-69
2022/06/29 12:31:40;;;;;;;;;;;26.50;99.90;;;;;;4974913;28;19965;-70
2022/06/29 12:34:13;;;;;;;;;;;26.50;99.90;;;;;;4976430;28;19944;-70
2022/06/29 12:36:44;;;;;;;;;;;26.40;99.90;;;;;;4974532;28;20052;-69
2022/06/29 12:39:11;;;;;;;;;;;26.40;99.90;;;;;;4979954;28;19928;-69
2022/06/29 12:41:43;;;;;;;;;;;26.10;99.90;;;;;;4985652;28;19922;-69
2022/06/29 12:44:14;;;;;;;;;;;26.00;99.90;;;;;;4979895;28;19937;-70
2022/06/29 12:46:41;;;;;;;;;;;26.00;99.90;;;;;;4977361;28;19929;-69
2022/06/29 12:49:13;;;;;;;;;;;26.00;99.90;;;;;;4981519;28;19928;-70
2022/06/29 12:51:39;;;;;;;;;;;25.80;99.90;;;;;;4981517;28;20347;-69
2022/06/29 12:54:11;;;;;;;;;;;25.80;99.90;;;;;;4979804;28;19929;-72
2022/06/29 12:56:43;;;;;;;;;;;26.00;99.90;;;;;;4973755;28;19926;-69
2022/06/29 12:59:09;;;;;;;;;;;26.30;99.90;;;;;;4982400;28;19922;-70
2022/06/29 13:01:41;;;;;;;;;;;26.60;99.90;;;;;;4984589;28;19921;-71
2022/06/29 13:04:13;;;;;;;;;;;26.70;99.90;;;;;;4990796;28;19930;-69
2022/06/29 13:06:45;;;;;;;;;;;26.70;99.90;;;;;;4973238;28;19960;-69
2022/06/29 13:09:16;;;;;;;;;;;26.40;99.90;;;;;;4991588;28;20016;-69
2022/06/29 13:11:48;;;;;;;;;;;26.20;99.90;;;;;;4974653;28;19926;-71
2022/06/29 13:14:20;;;;;;;;;;;26.00;99.90;;;;;;4981351;28;19930;-69
2022/06/29 13:16:52;;;;;;;;;;;25.90;99.90;;;;;;4989133;28;19933;-69
2022/06/29 13:19:23;;;;;;;;;;;25.80;99.90;;;;;;4980129;28;19926;-69
2022/06/29 13:21:55;;;;;;;;;;;26.00;99.90;;;;;;4982873;28;19922;-70
2022/06/29 13:24:27;;;;;;;;;;;26.40;99.90;;;;;;4970920;28;19922;-69
2022/06/29 13:26:54;;;;;;;;;;;26.50;99.90;;;;;;4978533;28;19921;-69
2022/06/29 13:29:26;;;;;;;;;;;26.70;99.90;;;;;;4982053;28;19922;-69
2022/06/29 13:31:59;;;;;;;;;;;26.60;99.90;;;;;;4981018;28;19922;-69
2022/06/29 13:34:28;;;;;;;;;;;26.70;99.90;;;;;;4982068;28;19947;-69
2022/06/29 13:36:59;;;;;;;;;;;26.70;99.90;;;;;;4976010;28;19926;-70
2022/06/29 13:39:31;;;;;;;;;;;26.70;99.90;;;;;;4979791;28;19922;-69
2022/06/29 13:42:03;;;;;;;;;;;26.60;99.90;;;;;;4984928;28;19957;-69
2022/06/29 13:44:35;;;;;;;;;;;26.60;99.90;;;;;;4975763;28;20296;-69
2022/06/29 13:47:07;;;;;;;;;;;26.40;99.90;;;;;;4978944;28;19929;-69
2022/06/29 13:49:40;;;;;;;;;;;26.50;99.90;;;;;;4976666;28;19922;-70
2022/06/29 13:52:06;;;;;;;;;;;26.60;99.90;;;;;;4985389;28;19922;-69
2022/06/29 13:54:41;;;;;;;;;;;26.50;99.90;;;;;;4978954;28;20315;-69
2022/06/29 13:57:13;;;;;;;;;;;26.40;99.90;;;;;;4974684;28;19921;-71
2022/06/29 13:59:44;;;;;;;;;;;26.40;99.90;;;;;;4975140;28;19934;-69
2022/06/29 14:02:16;;;;;;;;;;;26.20;99.90;;;;;;4978035;28;19928;-69
2022/06/29 14:04:47;;;;;;;;;;;26.00;99.90;;;;;;4974624;28;19929;-69
2022/06/29 14:07:20;;;;;;;;;;;26.00;99.90;;;;;;4980238;28;19929;-70
2022/06/29 14:09:52;;;;;;;;;;;26.00;99.90;;;;;;4975642;28;20009;-69
2022/06/29 14:12:24;;;;;;;;;;;26.10;99.90;;;;;;4970507;28;19933;-70
2022/06/29 14:14:55;;;;;;;;;;;26.30;99.90;;;;;;4979074;28;19922;-69
2022/06/29 14:17:27;;;;;;;;;;;26.90;99.90;;;;;;4976942;28;19925;-69
2022/06/29 14:19:59;;;;;;;;;;;27.60;99.90;;;;;;4983735;28;19926;-69
2022/06/29 14:22:30;;;;;;;;;;;28.10;99.90;;;;;;4981070;28;19933;-70
2022/06/29 14:25:02;;;;;;;;;;;28.40;99.90;;;;;;4977615;28;20016;-69
2022/06/29 14:27:34;;;;;;;;;;;28.60;99.90;;;;;;4977833;28;20583;-70
2022/06/29 14:30:06;;;;;;;;;;;28.80;99.90;;;;;;4978085;28;19921;-69
2022/06/29 14:32:41;;;;;;;;;;;29.00;99.90;;;;;;4981641;28;19925;-70
2022/06/29 14:35:12;;;;;;;;;;;29.10;99.90;;;;;;4981245;28;20446;-69
2022/06/29 14:37:44;;;;;;;;;;;29.50;99.90;;;;;;4979198;28;19921;-69
2022/06/29 14:40:17;;;;;;;;;;;29.60;99.90;;;;;;4985134;28;20012;-71
2022/06/29 14:42:49;;;;;;;;;;;29.50;99.90;;;;;;4980098;28;19929;-69
2022/06/29 14:45:21;;;;;;;;;;;29.20;99.90;;;;;;4971591;28;19922;-69
2022/06/29 14:47:53;;;;;;;;;;;29.10;99.90;;;;;;4978012;28;19925;-69
2022/06/29 14:50:24;;;;;;;;;;;29.20;99.90;;;;;;4978804;28;19929;-71
2022/06/29 14:52:56;;;;;;;;;;;29.40;99.90;;;;;;4982255;28;19921;-69
2022/06/29 14:55:28;;;;;;;;;;;29.40;99.90;;;;;;4972474;28;19961;-69
2022/06/29 14:57:59;;;;;;;;;;;29.20;99.90;;;;;;4979112;28;19948;-72
2022/06/29 15:00:31;;;;;;;;;;;29.30;99.90;;;;;;4975623;28;20603;-70
2022/06/29 15:03:03;;;;;;;;;;;29.10;99.90;;;;;;4979744;28;20416;-70
2022/06/29 15:05:35;;;;;;;;;;;28.80;99.90;;;;;;4974939;28;19957;-69
2022/06/29 15:08:07;;;;;;;;;;;28.40;99.90;;;;;;4976444;28;20305;-69
2022/06/29 15:10:38;;;;;;;;;;;28.10;99.90;;;;;;4981509;28;19925;-69
2022/06/29 15:13:10;;;;;;;;;;;28.00;99.90;;;;;;4976836;28;19922;-69
2022/06/29 15:15:46;;;;;;;;;;;28.00;99.90;;;;;;4976638;28;19922;-70
2022/06/29 15:18:17;;;;;;;;;;;28.00;99.90;;;;;;4978967;28;20298;-69